sensor_id;sensor_type;location;lat;lon;timestamp;pressure;altitude;pressure_sealevel;temperature;humidity
84855;BME280;75112;42.668;23.356;2024-03-02T00:01:17;94709.75;;;8.08;75.12
84855;BME280;75112;42.668;23.356;2024-03-02T00:03:47;94674.50;;;7.96;73.87
84855;BME280;75112;42.668;23.356;2024-03-02T00:06:13;94719.22;;;8.21;74.62
84855;BME280;75112;42.668;23.356;2024-03-02T00:08:39;94721.03;;;8.14;73.93
84855;BME280;75112;42.668;23.356;2024-03-02T00:11:06;94667.22;;;7.66;74.68
84855;BME280;75112;42.668;23.356;2024-03-02T00:13:34;94694.53;;;7.87;75.63
84855;BME280;75112;42.668;23.356;2024-03-02T00:16:01;94719.47;;;8.00;75.73
84855;BME280;75112;42.668;23.356;2024-03-02T00:18:34;94688.94;;;8.03;74.20
84855;BME280;75112;42.668;23.356;2024-03-02T00:21:00;94688.13;;;8.10;74.14
84855;BME280;75112;42.668;23.356;2024-03-02T00:23:30;94702.78;;;8.22;75.18
84855;BME280;75112;42.668;23.356;2024-03-02T00:25:57;94637.47;;;7.83;75.63
84855;BME280;75112;42.668;23.356;2024-03-02T00:28:27;94665.59;;;7.98;75.81
84855;BME280;75112;42.668;23.356;2024-03-02T00:31:01;94693.88;;;8.12;74.64
84855;BME280;75112;42.668;23.356;2024-03-02T00:33:35;94613.38;;;7.58;74.88
84855;BME280;75112;42.668;23.356;2024-03-02T00:36:05;94636.94;;;7.68;74.41
84855;BME280;75112;42.668;23.356;2024-03-02T00:38:32;94702.00;;;8.15;74.61
84855;BME280;75112;42.668;23.356;2024-03-02T00:41:06;94694.81;;;8.30;75.06
84855;BME280;75112;42.668;23.356;2024-03-02T00:43:47;94642.16;;;8.00;74.28
84855;BME280;75112;42.668;23.356;2024-03-02T00:46:17;94631.31;;;7.84;75.86
84855;BME280;75112;42.668;23.356;2024-03-02T00:49:00;94613.66;;;7.95;74.44
84855;BME280;75112;42.668;23.356;2024-03-02T00:51:29;94637.22;;;8.05;74.98
84855;BME280;75112;42.668;23.356;2024-03-02T00:53:58;94628.56;;;7.86;73.71
84855;BME280;75112;42.668;23.356;2024-03-02T00:56:25;94590.44;;;7.43;75.99
84855;BME280;75112;42.668;23.356;2024-03-02T00:58:52;94654.63;;;8.10;73.41
84855;BME280;75112;42.668;23.356;2024-03-02T01:01:18;94638.56;;;8.14;74.04
84855;BME280;75112;42.668;23.356;2024-03-02T01:03:48;94687.47;;;8.41;74.30
84855;BME280;75112;42.668;23.356;2024-03-02T01:06:15;94617.59;;;7.97;74.20
84855;BME280;75112;42.668;23.356;2024-03-02T01:08:41;94600.19;;;7.93;73.59
84855;BME280;75112;42.668;23.356;2024-03-02T01:11:07;94681.91;;;8.44;73.57
84855;BME280;75112;42.668;23.356;2024-03-02T01:13:33;94666.28;;;8.25;73.16
84855;BME280;75112;42.668;23.356;2024-03-02T01:15:59;94634.53;;;8.32;71.69
84855;BME280;75112;42.668;23.356;2024-03-02T01:18:25;94625.25;;;8.17;73.76
84855;BME280;75112;42.668;23.356;2024-03-02T01:20:51;94668.19;;;8.50;74.34
84855;BME280;75112;42.668;23.356;2024-03-02T01:23:23;94637.25;;;8.37;74.17
84855;BME280;75112;42.668;23.356;2024-03-02T01:25:50;94679.28;;;8.50;73.29
84855;BME280;75112;42.668;23.356;2024-03-02T01:28:17;94602.94;;;7.98;74.50
84855;BME280;75112;42.668;23.356;2024-03-02T01:30:43;94659.13;;;8.27;76.35
84855;BME280;75112;42.668;23.356;2024-03-02T01:33:08;94660.31;;;8.38;76.10
84855;BME280;75112;42.668;23.356;2024-03-02T01:35:34;94646.47;;;8.19;75.66
84855;BME280;75112;42.668;23.356;2024-03-02T01:38:01;94658.78;;;8.17;77.02
84855;BME280;75112;42.668;23.356;2024-03-02T01:40:27;94617.84;;;7.89;77.39
84855;BME280;75112;42.668;23.356;2024-03-02T01:42:54;94597.44;;;7.88;76.09
84855;BME280;75112;42.668;23.356;2024-03-02T01:45:20;94586.00;;;7.70;75.93
84855;BME280;75112;42.668;23.356;2024-03-02T01:47:46;94652.03;;;8.16;76.66
84855;BME280;75112;42.668;23.356;2024-03-02T01:50:12;94655.56;;;8.28;77.63
84855;BME280;75112;42.668;23.356;2024-03-02T01:52:38;94645.09;;;8.17;77.65
84855;BME280;75112;42.668;23.356;2024-03-02T01:55:05;94659.72;;;8.29;77.34
84855;BME280;75112;42.668;23.356;2024-03-02T01:57:31;94627.50;;;8.07;78.24
84855;BME280;75112;42.668;23.356;2024-03-02T01:59:58;94651.97;;;8.29;78.05
84855;BME280;75112;42.668;23.356;2024-03-02T02:02:25;94572.94;;;7.65;77.11
84855;BME280;75112;42.668;23.356;2024-03-02T02:04:52;94600.28;;;7.73;76.69
84855;BME280;75112;42.668;23.356;2024-03-02T02:07:19;94662.13;;;8.18;78.32
84855;BME280;75112;42.668;23.356;2024-03-02T02:09:45;94661.94;;;8.13;77.58
84855;BME280;75112;42.668;23.356;2024-03-02T02:12:11;94613.69;;;7.81;78.60
84855;BME280;75112;42.668;23.356;2024-03-02T02:14:37;94604.41;;;7.80;77.64
84855;BME280;75112;42.668;23.356;2024-03-02T02:17:05;94616.28;;;7.81;77.29
84855;BME280;75112;42.668;23.356;2024-03-02T02:19:31;94606.56;;;7.83;76.64
84855;BME280;75112;42.668;23.356;2024-03-02T02:22:00;94575.97;;;7.49;78.28
84855;BME280;75112;42.668;23.356;2024-03-02T02:24:30;94609.34;;;7.75;76.70
84855;BME280;75112;42.668;23.356;2024-03-02T02:26:57;94609.94;;;7.77;77.77
84855;BME280;75112;42.668;23.356;2024-03-02T02:29:24;94608.94;;;7.78;78.16
84855;BME280;75112;42.668;23.356;2024-03-02T02:31:52;94639.38;;;8.08;77.26
84855;BME280;75112;42.668;23.356;2024-03-02T02:34:20;94645.38;;;7.95;76.89
84855;BME280;75112;42.668;23.356;2024-03-02T02:36:46;94637.06;;;7.87;78.19
84855;BME280;75112;42.668;23.356;2024-03-02T02:39:15;94616.91;;;7.70;78.48
84855;BME280;75112;42.668;23.356;2024-03-02T02:41:42;94604.88;;;7.57;77.64
84855;BME280;75112;42.668;23.356;2024-03-02T02:44:11;94577.59;;;7.36;78.51
84855;BME280;75112;42.668;23.356;2024-03-02T02:46:38;94586.63;;;7.59;78.84
84855;BME280;75112;42.668;23.356;2024-03-02T02:49:04;94562.13;;;7.43;77.63
84855;BME280;75112;42.668;23.356;2024-03-02T02:51:30;94569.97;;;7.68;78.30
84855;BME280;75112;42.668;23.356;2024-03-02T02:53:56;94571.53;;;7.69;77.85
84855;BME280;75112;42.668;23.356;2024-03-02T02:56:22;94558.44;;;7.77;77.57
84855;BME280;75112;42.668;23.356;2024-03-02T02:58:48;94620.72;;;8.13;77.93
84855;BME280;75112;42.668;23.356;2024-03-02T03:01:17;94628.47;;;8.06;78.22
84855;BME280;75112;42.668;23.356;2024-03-02T03:03:45;94549.63;;;7.47;76.38
84855;BME280;75112;42.668;23.356;2024-03-02T03:06:12;94610.88;;;7.96;77.05
84855;BME280;75112;42.668;23.356;2024-03-02T03:08:37;94568.84;;;7.96;75.84
84855;BME280;75112;42.668;23.356;2024-03-02T03:11:04;94593.59;;;8.10;76.52
84855;BME280;75112;42.668;23.356;2024-03-02T03:13:31;94648.41;;;8.30;76.99
84855;BME280;75112;42.668;23.356;2024-03-02T03:15:57;94602.94;;;7.98;76.21
84855;BME280;75112;42.668;23.356;2024-03-02T03:18:24;94648.53;;;8.04;78.74
84855;BME280;75112;42.668;23.356;2024-03-02T03:20:50;94624.81;;;7.82;78.68
84855;BME280;75112;42.668;23.356;2024-03-02T03:23:17;94656.84;;;7.99;79.38
84855;BME280;75112;42.668;23.356;2024-03-02T03:29:15;94599.63;;;7.84;78.27
84855;BME280;75112;42.668;23.356;2024-03-02T03:31:40;94616.88;;;7.83;78.15
84855;BME280;75112;42.668;23.356;2024-03-02T03:34:06;94605.44;;;7.73;79.41
84855;BME280;75112;42.668;23.356;2024-03-02T03:36:33;94609.19;;;7.70;78.56
84855;BME280;75112;42.668;23.356;2024-03-02T03:39:00;94577.75;;;7.48;77.88
84855;BME280;75112;42.668;23.356;2024-03-02T03:41:27;94629.13;;;7.88;79.87
84855;BME280;75112;42.668;23.356;2024-03-02T03:43:54;94591.41;;;7.55;80.19
84855;BME280;75112;42.668;23.356;2024-03-02T03:46:24;94555.63;;;7.27;79.63
84855;BME280;75112;42.668;23.356;2024-03-02T03:49:06;94582.34;;;7.40;79.99
84855;BME280;75112;42.668;23.356;2024-03-02T03:51:49;94649.75;;;7.88;78.72
84855;BME280;75112;42.668;23.356;2024-03-02T03:54:15;94647.00;;;7.83;78.63
84855;BME280;75112;42.668;23.356;2024-03-02T03:56:40;94645.41;;;7.89;79.75
84855;BME280;75112;42.668;23.356;2024-03-02T03:59:07;94554.22;;;7.31;78.52
84855;BME280;75112;42.668;23.356;2024-03-02T04:01:34;94622.91;;;7.57;78.41
84855;BME280;75112;42.668;23.356;2024-03-02T04:04:00;94585.28;;;7.43;80.37
84855;BME280;75112;42.668;23.356;2024-03-02T04:06:29;94578.75;;;7.41;78.96
84855;BME280;75112;42.668;23.356;2024-03-02T04:08:57;94618.13;;;7.61;79.24
84855;BME280;75112;42.668;23.356;2024-03-02T04:11:24;94577.97;;;7.33;77.78
84855;BME280;75112;42.668;23.356;2024-03-02T04:13:49;94575.41;;;7.33;77.98
84855;BME280;75112;42.668;23.356;2024-03-02T04:16:16;94576.56;;;7.44;77.95
84855;BME280;75112;42.668;23.356;2024-03-02T04:18:41;94600.09;;;7.61;78.72
84855;BME280;75112;42.668;23.356;2024-03-02T04:21:07;94625.22;;;7.79;78.22
84855;BME280;75112;42.668;23.356;2024-03-02T04:23:33;94550.66;;;7.32;78.69
84855;BME280;75112;42.668;23.356;2024-03-02T04:25:59;94578.84;;;7.72;76.68
84855;BME280;75112;42.668;23.356;2024-03-02T04:28:26;94556.75;;;7.51;76.87
84855;BME280;75112;42.668;23.356;2024-03-02T04:31:10;94646.28;;;8.14;77.42
84855;BME280;75112;42.668;23.356;2024-03-02T04:33:37;94573.56;;;7.60;76.32
84855;BME280;75112;42.668;23.356;2024-03-02T04:36:04;94659.59;;;8.11;77.33
84855;BME280;75112;42.668;23.356;2024-03-02T04:38:30;94566.78;;;7.66;77.15
84855;BME280;75112;42.668;23.356;2024-03-02T04:40:57;94658.28;;;8.47;77.55
84855;BME280;75112;42.668;23.356;2024-03-02T04:43:23;94661.97;;;8.58;75.75
84855;BME280;75112;42.668;23.356;2024-03-02T04:45:50;94589.63;;;8.07;76.81
84855;BME280;75112;42.668;23.356;2024-03-02T04:48:15;94654.28;;;8.51;76.67
84855;BME280;75112;42.668;23.356;2024-03-02T04:50:41;94581.06;;;8.14;77.29
84855;BME280;75112;42.668;23.356;2024-03-02T04:53:08;94568.47;;;7.92;77.45
84855;BME280;75112;42.668;23.356;2024-03-02T04:55:34;94660.38;;;8.12;77.31
84855;BME280;75112;42.668;23.356;2024-03-02T04:58:00;94622.66;;;7.79;79.47
84855;BME280;75112;42.668;23.356;2024-03-02T05:00:26;94660.38;;;8.12;77.82
84855;BME280;75112;42.668;23.356;2024-03-02T05:02:52;94629.56;;;7.78;80.02
84855;BME280;75112;42.668;23.356;2024-03-02T05:05:18;94608.38;;;7.76;78.88
84855;BME280;75112;42.668;23.356;2024-03-02T05:07:44;94667.88;;;8.20;80.01
84855;BME280;75112;42.668;23.356;2024-03-02T05:10:13;94587.97;;;7.75;80.06
84855;BME280;75112;42.668;23.356;2024-03-02T05:12:40;94632.41;;;8.15;80.52
84855;BME280;75112;42.668;23.356;2024-03-02T05:15:10;94630.22;;;8.12;79.43
84855;BME280;75112;42.668;23.356;2024-03-02T05:17:37;94669.81;;;8.31;79.66
84855;BME280;75112;42.668;23.356;2024-03-02T05:20:07;94622.56;;;7.99;80.78
84855;BME280;75112;42.668;23.356;2024-03-02T05:22:36;94650.06;;;8.12;81.51
84855;BME280;75112;42.668;23.356;2024-03-02T05:25:06;94652.03;;;8.10;82.70
84855;BME280;75112;42.668;23.356;2024-03-02T05:27:32;94605.81;;;7.76;81.78
84855;BME280;75112;42.668;23.356;2024-03-02T05:30:02;94676.78;;;8.24;80.27
84855;BME280;75112;42.668;23.356;2024-03-02T05:32:29;94667.50;;;8.10;82.99
84855;BME280;75112;42.668;23.356;2024-03-02T05:34:55;94601.47;;;7.70;81.17
84855;BME280;75112;42.668;23.356;2024-03-02T05:37:20;94675.66;;;8.13;81.89
84855;BME280;75112;42.668;23.356;2024-03-02T05:39:46;94694.03;;;8.23;82.13
84855;BME280;75112;42.668;23.356;2024-03-02T05:42:11;94672.44;;;8.18;80.71
84855;BME280;75112;42.668;23.356;2024-03-02T05:44:36;94701.16;;;8.35;81.40
84855;BME280;75112;42.668;23.356;2024-03-02T05:47:02;94664.38;;;8.07;81.56
84855;BME280;75112;42.668;23.356;2024-03-02T05:49:29;94704.34;;;8.30;81.53
84855;BME280;75112;42.668;23.356;2024-03-02T05:51:55;94657.88;;;7.92;82.24
84855;BME280;75112;42.668;23.356;2024-03-02T05:54:22;94670.53;;;8.00;80.79
84855;BME280;75112;42.668;23.356;2024-03-02T05:56:48;94659.31;;;7.68;82.27
84855;BME280;75112;42.668;23.356;2024-03-02T05:59:14;94630.84;;;7.29;82.87
84855;BME280;75112;42.668;23.356;2024-03-02T06:01:45;94660.13;;;7.55;84.42
84855;BME280;75112;42.668;23.356;2024-03-02T06:04:17;94712.56;;;7.94;84.15
84855;BME280;75112;42.668;23.356;2024-03-02T06:06:43;94639.13;;;7.58;84.14
84855;BME280;75112;42.668;23.356;2024-03-02T06:09:10;94660.66;;;7.83;83.89
84855;BME280;75112;42.668;23.356;2024-03-02T06:11:40;94664.81;;;7.84;83.38
84855;BME280;75112;42.668;23.356;2024-03-02T06:14:08;94669.34;;;7.96;83.21
84855;BME280;75112;42.668;23.356;2024-03-02T06:16:34;94675.09;;;7.98;82.63
84855;BME280;75112;42.668;23.356;2024-03-02T06:19:01;94647.06;;;7.50;83.77
84855;BME280;75112;42.668;23.356;2024-03-02T06:21:28;94701.28;;;7.95;84.11
84855;BME280;75112;42.668;23.356;2024-03-02T06:23:54;94656.94;;;7.73;83.36
84855;BME280;75112;42.668;23.356;2024-03-02T06:26:20;94624.25;;;7.60;82.89
84855;BME280;75112;42.668;23.356;2024-03-02T06:28:47;94682.41;;;8.07;82.85
84855;BME280;75112;42.668;23.356;2024-03-02T06:31:13;94664.19;;;7.96;81.11
84855;BME280;75112;42.668;23.356;2024-03-02T06:33:39;94681.81;;;8.05;82.94
84855;BME280;75112;42.668;23.356;2024-03-02T06:36:07;94653.97;;;7.76;82.08
84855;BME280;75112;42.668;23.356;2024-03-02T06:38:37;94723.44;;;8.09;82.87
84855;BME280;75112;42.668;23.356;2024-03-02T06:41:06;94697.91;;;7.88;82.97
84855;BME280;75112;42.668;23.356;2024-03-02T06:43:33;94706.84;;;7.78;83.75
84855;BME280;75112;42.668;23.356;2024-03-02T06:45:59;94658.56;;;7.41;84.18
84855;BME280;75112;42.668;23.356;2024-03-02T06:48:27;94679.78;;;7.36;84.03
84855;BME280;75112;42.668;23.356;2024-03-02T06:50:55;94700.94;;;7.58;84.83
84855;BME280;75112;42.668;23.356;2024-03-02T06:53:22;94654.63;;;7.11;82.93
84855;BME280;75112;42.668;23.356;2024-03-02T06:55:49;94665.31;;;7.22;84.19
84855;BME280;75112;42.668;23.356;2024-03-02T06:58:16;94682.31;;;7.49;83.53
84855;BME280;75112;42.668;23.356;2024-03-02T07:00:50;94684.09;;;7.35;83.90
84855;BME280;75112;42.668;23.356;2024-03-02T07:03:19;94696.78;;;7.44;83.01
84855;BME280;75112;42.668;23.356;2024-03-02T07:12:32;94651.25;;;7.31;84.16
84855;BME280;75112;42.668;23.356;2024-03-02T07:14:59;94659.38;;;7.28;83.65
84855;BME280;75112;42.668;23.356;2024-03-02T07:17:31;94752.78;;;7.88;83.67
84855;BME280;75112;42.668;23.356;2024-03-02T07:26:45;94727.22;;;8.00;83.03
84855;BME280;75112;42.668;23.356;2024-03-02T07:29:11;94710.63;;;7.82;84.88
84855;BME280;75112;42.668;23.356;2024-03-02T07:31:38;94661.72;;;7.56;82.80
84855;BME280;75112;42.668;23.356;2024-03-02T07:34:04;94712.56;;;7.94;83.28
84855;BME280;75112;42.668;23.356;2024-03-02T07:36:29;94712.38;;;7.89;84.22
84855;BME280;75112;42.668;23.356;2024-03-02T07:38:55;94700.34;;;7.56;83.27
84855;BME280;75112;42.668;23.356;2024-03-02T07:41:21;94760.31;;;8.03;84.78
84855;BME280;75112;42.668;23.356;2024-03-02T07:43:47;94678.34;;;7.53;84.69
84855;BME280;75112;42.668;23.356;2024-03-02T07:46:18;94680.34;;;7.45;84.91
84855;BME280;75112;42.668;23.356;2024-03-02T07:48:43;94763.53;;;7.85;85.13
84855;BME280;75112;42.668;23.356;2024-03-02T07:51:09;94753.59;;;7.75;85.20
84855;BME280;75112;42.668;23.356;2024-03-02T07:53:34;94715.59;;;7.51;85.44
84855;BME280;75112;42.668;23.356;2024-03-02T07:55:59;94759.94;;;7.99;83.72
84855;BME280;75112;42.668;23.356;2024-03-02T07:58:27;94750.81;;;8.10;83.34
84855;BME280;75112;42.668;23.356;2024-03-02T08:00:53;94767.00;;;8.30;83.79
84855;BME280;75112;42.668;23.356;2024-03-02T08:03:18;94751.56;;;8.24;83.23
84855;BME280;75112;42.668;23.356;2024-03-02T08:05:44;94758.38;;;7.92;83.02
84855;BME280;75112;42.668;23.356;2024-03-02T08:08:10;94772.63;;;7.94;83.75
84855;BME280;75112;42.668;23.356;2024-03-02T08:10:36;94745.28;;;7.87;82.86
84855;BME280;75112;42.668;23.356;2024-03-02T08:13:02;94769.06;;;7.95;83.45
84855;BME280;75112;42.668;23.356;2024-03-02T08:15:27;94773.19;;;8.10;82.94
84855;BME280;75112;42.668;23.356;2024-03-02T08:17:53;94782.91;;;8.07;83.83
84855;BME280;75112;42.668;23.356;2024-03-02T08:20:19;94770.84;;;7.81;84.07
84855;BME280;75112;42.668;23.356;2024-03-02T08:22:45;94780.56;;;7.86;84.89
84855;BME280;75112;42.668;23.356;2024-03-02T08:25:10;94766.28;;;7.97;85.00
84855;BME280;75112;42.668;23.356;2024-03-02T08:27:36;94776.97;;;8.07;83.86
84855;BME280;75112;42.668;23.356;2024-03-02T08:30:02;94763.50;;;8.05;85.12
84855;BME280;75112;42.668;23.356;2024-03-02T08:32:31;94740.13;;;7.93;83.95
84855;BME280;75112;42.668;23.356;2024-03-02T08:34:57;94759.91;;;8.19;84.00
84855;BME280;75112;42.668;23.356;2024-03-02T08:37:22;94765.41;;;8.43;82.64
84855;BME280;75112;42.668;23.356;2024-03-02T08:39:47;94749.94;;;8.36;82.26
84855;BME280;75112;42.668;23.356;2024-03-02T08:42:13;94772.69;;;8.66;82.57
84855;BME280;75112;42.668;23.356;2024-03-02T08:44:39;94769.72;;;8.62;82.38
84855;BME280;75112;42.668;23.356;2024-03-02T08:47:04;94716.59;;;8.48;82.91
84855;BME280;75112;42.668;23.356;2024-03-02T08:49:30;94724.09;;;8.56;83.26
84855;BME280;75112;42.668;23.356;2024-03-02T08:51:55;94756.22;;;8.60;82.57
84855;BME280;75112;42.668;23.356;2024-03-02T08:54:24;94757.34;;;8.71;82.42
84855;BME280;75112;42.668;23.356;2024-03-02T08:56:49;94760.88;;;8.83;81.79
84855;BME280;75112;42.668;23.356;2024-03-02T08:59:15;94708.84;;;8.48;80.47
84855;BME280;75112;42.668;23.356;2024-03-02T09:01:41;94773.00;;;9.21;80.96
84855;BME280;75112;42.668;23.356;2024-03-02T09:04:07;94754.50;;;8.86;79.94
84855;BME280;75112;42.668;23.356;2024-03-02T09:06:34;94765.44;;;8.88;82.19
84855;BME280;75112;42.668;23.356;2024-03-02T09:09:00;94748.19;;;8.82;80.99
84855;BME280;75112;42.668;23.356;2024-03-02T09:11:26;94773.19;;;8.88;80.64
84855;BME280;75112;42.668;23.356;2024-03-02T09:13:51;94778.41;;;8.74;79.98
84855;BME280;75112;42.668;23.356;2024-03-02T09:16:18;94755.19;;;8.74;82.56
84855;BME280;75112;42.668;23.356;2024-03-02T09:18:43;94773.47;;;9.11;80.59
84855;BME280;75112;42.668;23.356;2024-03-02T09:21:08;94765.34;;;9.01;80.40
84855;BME280;75112;42.668;23.356;2024-03-02T09:23:34;94759.22;;;9.02;80.12
84855;BME280;75112;42.668;23.356;2024-03-02T09:25:59;94781.81;;;9.38;78.39
84855;BME280;75112;42.668;23.356;2024-03-02T09:28:25;94771.41;;;9.20;79.86
84855;BME280;75112;42.668;23.356;2024-03-02T09:30:50;94764.75;;;9.06;80.40
84855;BME280;75112;42.668;23.356;2024-03-02T09:33:16;94759.16;;;8.70;78.92
84855;BME280;75112;42.668;23.356;2024-03-02T09:35:41;94786.13;;;8.81;79.65
84855;BME280;75112;42.668;23.356;2024-03-02T09:38:07;94791.03;;;8.89;79.35
84855;BME280;75112;42.668;23.356;2024-03-02T09:40:33;94788.59;;;9.01;80.57
84855;BME280;75112;42.668;23.356;2024-03-02T09:42:58;94783.69;;;9.25;79.89
84855;BME280;75112;42.668;23.356;2024-03-02T09:45:25;94780.28;;;9.31;80.72
84855;BME280;75112;42.668;23.356;2024-03-02T09:47:51;94785.53;;;9.49;80.14
84855;BME280;75112;42.668;23.356;2024-03-02T09:50:17;94781.34;;;9.16;80.38
84855;BME280;75112;42.668;23.356;2024-03-02T09:52:43;94791.31;;;9.13;81.92
84855;BME280;75112;42.668;23.356;2024-03-02T09:55:09;94790.25;;;9.20;80.78
84855;BME280;75112;42.668;23.356;2024-03-02T09:57:34;94779.75;;;9.22;80.61
84855;BME280;75112;42.668;23.356;2024-03-02T09:59:59;94786.28;;;9.25;80.50
84855;BME280;75112;42.668;23.356;2024-03-02T10:02:25;94774.47;;;9.35;80.02
84855;BME280;75112;42.668;23.356;2024-03-02T10:04:51;94793.00;;;9.57;77.37
84855;BME280;75112;42.668;23.356;2024-03-02T10:07:17;94793.41;;;9.61;78.74
84855;BME280;75112;42.668;23.356;2024-03-02T10:09:44;94791.06;;;9.78;79.03
84855;BME280;75112;42.668;23.356;2024-03-02T10:12:11;94796.66;;;9.75;79.08
84855;BME280;75112;42.668;23.356;2024-03-02T10:14:37;94791.75;;;9.66;79.15
84855;BME280;75112;42.668;23.356;2024-03-02T10:19:29;94784.91;;;9.22;80.25
84855;BME280;75112;42.668;23.356;2024-03-02T10:21:58;94789.19;;;9.35;80.16
84855;BME280;75112;42.668;23.356;2024-03-02T10:24:24;94785.91;;;9.53;79.49
84855;BME280;75112;42.668;23.356;2024-03-02T10:26:51;94783.69;;;9.25;80.36
84855;BME280;75112;42.668;23.356;2024-03-02T10:29:17;94790.53;;;9.44;79.52
84855;BME280;75112;42.668;23.356;2024-03-02T10:31:46;94777.41;;;9.14;79.85
84855;BME280;75112;42.668;23.356;2024-03-02T10:34:12;94772.28;;;9.07;79.87
84855;BME280;75112;42.668;23.356;2024-03-02T10:36:41;94783.16;;;9.16;81.47
84855;BME280;75112;42.668;23.356;2024-03-02T10:39:08;94787.19;;;9.37;79.29
84855;BME280;75112;42.668;23.356;2024-03-02T10:41:36;94784.47;;;9.57;79.95
84855;BME280;75112;42.668;23.356;2024-03-02T10:44:03;94789.50;;;9.52;79.53
84855;BME280;75112;42.668;23.356;2024-03-02T10:46:30;94784.53;;;9.50;80.77
84855;BME280;75112;42.668;23.356;2024-03-02T10:48:56;94782.09;;;9.30;82.28
84855;BME280;75112;42.668;23.356;2024-03-02T10:51:25;94777.44;;;9.39;80.62
84855;BME280;75112;42.668;23.356;2024-03-02T10:53:51;94781.53;;;9.53;81.37
84855;BME280;75112;42.668;23.356;2024-03-02T10:56:22;94774.91;;;9.57;79.56
84855;BME280;75112;42.668;23.356;2024-03-02T10:58:57;94769.94;;;9.62;79.50
84855;BME280;75112;42.668;23.356;2024-03-02T11:01:27;94772.97;;;9.78;80.04
84855;BME280;75112;42.668;23.356;2024-03-02T11:03:54;94778.22;;;9.71;79.12
84855;BME280;75112;42.668;23.356;2024-03-02T11:06:22;94771.91;;;9.67;80.16
84855;BME280;75112;42.668;23.356;2024-03-02T11:08:49;94756.09;;;9.50;80.92
84855;BME280;75112;42.668;23.356;2024-03-02T11:11:28;94773.41;;;9.50;80.55
84855;BME280;75112;42.668;23.356;2024-03-02T11:13:56;94770.31;;;9.34;80.03
84855;BME280;75112;42.668;23.356;2024-03-02T11:16:34;94764.50;;;9.45;80.64
84855;BME280;75112;42.668;23.356;2024-03-02T11:19:03;94768.34;;;9.61;80.03
84855;BME280;75112;42.668;23.356;2024-03-02T11:21:30;94765.34;;;9.33;82.01
84855;BME280;75112;42.668;23.356;2024-03-02T11:23:58;94769.63;;;9.52;80.67
84855;BME280;75112;42.668;23.356;2024-03-02T11:26:23;94764.09;;;9.49;79.87
84855;BME280;75112;42.668;23.356;2024-03-02T11:28:50;94744.09;;;9.37;80.63
84855;BME280;75112;42.668;23.356;2024-03-02T11:31:16;94761.63;;;9.79;79.53
84855;BME280;75112;42.668;23.356;2024-03-02T11:33:41;94766.31;;;9.70;79.05
84855;BME280;75112;42.668;23.356;2024-03-02T11:36:08;94757.03;;;9.31;80.21
84855;BME280;75112;42.668;23.356;2024-03-02T11:38:35;94752.41;;;9.14;81.00
84855;BME280;75112;42.668;23.356;2024-03-02T11:41:02;94752.50;;;9.51;78.09
84855;BME280;75112;42.668;23.356;2024-03-02T11:43:29;94758.13;;;9.16;81.01
84855;BME280;75112;42.668;23.356;2024-03-02T11:46:01;94765.63;;;8.93;80.45
84855;BME280;75112;42.668;23.356;2024-03-02T11:48:30;94768.06;;;8.81;82.16
84855;BME280;75112;42.668;23.356;2024-03-02T11:50:58;94746.84;;;8.72;82.67
84855;BME280;75112;42.668;23.356;2024-03-02T11:53:24;94750.88;;;9.00;80.67
84855;BME280;75112;42.668;23.356;2024-03-02T11:55:55;94734.69;;;8.80;81.78
84855;BME280;75112;42.668;23.356;2024-03-02T11:58:21;94747.56;;;8.93;82.34
84855;BME280;75112;42.668;23.356;2024-03-02T12:00:55;94721.56;;;8.88;82.06
84855;BME280;75112;42.668;23.356;2024-03-02T12:03:25;94732.16;;;9.05;80.59
84855;BME280;75112;42.668;23.356;2024-03-02T12:05:52;94738.66;;;9.14;80.46
84855;BME280;75112;42.668;23.356;2024-03-02T12:08:18;94754.13;;;9.20;79.95
84855;BME280;75112;42.668;23.356;2024-03-02T12:10:56;94765.13;;;9.41;79.52
84855;BME280;75112;42.668;23.356;2024-03-02T12:13:21;94737.53;;;9.35;80.96
84855;BME280;75112;42.668;23.356;2024-03-02T12:15:48;94754.94;;;9.46;79.53
84855;BME280;75112;42.668;23.356;2024-03-02T12:18:13;94760.84;;;9.53;79.21
84855;BME280;75112;42.668;23.356;2024-03-02T12:20:39;94747.44;;;9.38;78.71
84855;BME280;75112;42.668;23.356;2024-03-02T12:23:04;94743.78;;;9.20;78.03
84855;BME280;75112;42.668;23.356;2024-03-02T12:25:31;94752.97;;;9.41;78.37
84855;BME280;75112;42.668;23.356;2024-03-02T12:28:00;94759.84;;;9.54;77.11
84855;BME280;75112;42.668;23.356;2024-03-02T12:30:28;94774.25;;;9.68;77.40
84855;BME280;75112;42.668;23.356;2024-03-02T12:32:54;94733.84;;;9.24;78.10
84855;BME280;75112;42.668;23.356;2024-03-02T12:35:20;94768.84;;;9.45;77.71
84855;BME280;75112;42.668;23.356;2024-03-02T12:37:48;94747.50;;;9.56;77.47
84855;BME280;75112;42.668;23.356;2024-03-02T12:40:15;94745.94;;;9.55;77.65
84855;BME280;75112;42.668;23.356;2024-03-02T12:42:43;94732.69;;;9.45;77.03
84855;BME280;75112;42.668;23.356;2024-03-02T12:45:08;94764.63;;;9.76;77.36
84855;BME280;75112;42.668;23.356;2024-03-02T12:47:34;94766.66;;;9.74;75.98
84855;BME280;75112;42.668;23.356;2024-03-02T12:50:00;94744.69;;;9.39;76.99
84855;BME280;75112;42.668;23.356;2024-03-02T12:52:26;94768.78;;;9.58;77.42
84855;BME280;75112;42.668;23.356;2024-03-02T12:54:51;94757.91;;;9.50;77.08
84855;BME280;75112;42.668;23.356;2024-03-02T12:57:21;94756.09;;;9.50;76.69
84855;BME280;75112;42.668;23.356;2024-03-02T12:59:47;94755.06;;;9.58;76.39
84855;BME280;75112;42.668;23.356;2024-03-02T13:02:19;94751.59;;;9.71;74.34
84855;BME280;75112;42.668;23.356;2024-03-02T13:04:52;94773.19;;;9.51;77.10
84855;BME280;75112;42.668;23.356;2024-03-02T13:07:18;94754.16;;;9.45;76.28
84855;BME280;75112;42.668;23.356;2024-03-02T13:09:45;94759.69;;;9.74;75.89
84855;BME280;75112;42.668;23.356;2024-03-02T13:12:11;94762.06;;;9.76;75.32
84855;BME280;75112;42.668;23.356;2024-03-02T13:14:37;94746.03;;;9.92;72.89
84855;BME280;75112;42.668;23.356;2024-03-02T13:17:02;94762.28;;;10.18;72.99
84855;BME280;75112;42.668;23.356;2024-03-02T13:19:30;94774.91;;;10.32;73.77